sensor_id;sensor_type;location;lat;lon;timestamp;P1;durP1;ratioP1;P2;durP2;ratioP2
20705;SDS011;10514;49.468;11.044;2023-03-14T00:01:22;0.83;;;0.40;;
20705;SDS011;10514;49.468;11.044;2023-03-14T00:03:48;0.63;;;0.60;;
20705;SDS011;10514;49.468;11.044;2023-03-14T00:06:15;0.80;;;0.50;;
20705;SDS011;10514;49.468;11.044;2023-03-14T00:08:42;0.70;;;0.50;;
20705;SDS011;10514;49.468;11.044;2023-03-14T00:11:09;1.93;;;0.57;;
20705;SDS011;10514;49.468;11.044;2023-03-14T00:13:40;2.75;;;0.60;;
20705;SDS011;10514;49.468;11.044;2023-03-14T00:16:07;1.87;;;0.60;;
20705;SDS011;10514;49.468;11.044;2023-03-14T00:18:34;2.70;;;0.60;;
20705;SDS011;10514;49.468;11.044;2023-03-14T00:21:01;1.73;;;0.60;;
20705;SDS011;10514;49.468;11.044;2023-03-14T00:23:27;1.00;;;0.60;;
20705;SDS011;10514;49.468;11.044;2023-03-14T00:25:53;6.57;;;0.90;;
20705;SDS011;10514;49.468;11.044;2023-03-14T00:28:19;0.73;;;0.60;;
20705;SDS011;10514;49.468;11.044;2023-03-14T00:30:45;1.17;;;0.60;;
20705;SDS011;10514;49.468;11.044;2023-03-14T00:33:11;1.48;;;0.70;;
20705;SDS011;10514;49.468;11.044;2023-03-14T00:35:37;0.47;;;0.40;;
20705;SDS011;10514;49.468;11.044;2023-03-14T00:38:03;0.95;;;0.50;;
20705;SDS011;10514;49.468;11.044;2023-03-14T00:40:29;0.70;;;0.50;;
20705;SDS011;10514;49.468;11.044;2023-03-14T00:42:55;1.20;;;0.40;;
20705;SDS011;10514;49.468;11.044;2023-03-14T00:45:21;1.37;;;0.50;;
20705;SDS011;10514;49.468;11.044;2023-03-14T00:47:46;1.60;;;0.47;;
20705;SDS011;10514;49.468;11.044;2023-03-14T00:50:12;0.85;;;0.40;;
20705;SDS011;10514;49.468;11.044;2023-03-14T00:52:38;0.30;;;0.30;;
20705;SDS011;10514;49.468;11.044;2023-03-14T00:55:04;0.50;;;0.50;;
20705;SDS011;10514;49.468;11.044;2023-03-14T00:57:30;0.95;;;0.50;;
20705;SDS011;10514;49.468;11.044;2023-03-14T00:59:56;0.67;;;0.40;;
20705;SDS011;10514;49.468;11.044;2023-03-14T01:02:22;1.65;;;0.30;;
20705;SDS011;10514;49.468;11.044;2023-03-14T01:04:48;0.40;;;0.35;;
20705;SDS011;10514;49.468;11.044;2023-03-14T01:07:15;0.60;;;0.40;;
20705;SDS011;10514;49.468;11.044;2023-03-14T01:09:41;0.30;;;0.30;;
20705;SDS011;10514;49.468;11.044;2023-03-14T01:12:07;0.28;;;0.28;;
20705;SDS011;10514;49.468;11.044;2023-03-14T01:14:33;0.30;;;0.30;;
20705;SDS011;10514;49.468;11.044;2023-03-14T01:16:59;0.30;;;0.30;;
20705;SDS011;10514;49.468;11.044;2023-03-14T01:19:26;0.60;;;0.30;;
20705;SDS011;10514;49.468;11.044;2023-03-14T01:21:53;0.30;;;0.30;;
20705;SDS011;10514;49.468;11.044;2023-03-14T01:24:19;0.50;;;0.50;;
20705;SDS011;10514;49.468;11.044;2023-03-14T01:26:45;0.63;;;0.30;;
20705;SDS011;10514;49.468;11.044;2023-03-14T01:29:11;0.40;;;0.30;;
20705;SDS011;10514;49.468;11.044;2023-03-14T01:31:37;0.65;;;0.30;;
20705;SDS011;10514;49.468;11.044;2023-03-14T01:34:03;0.40;;;0.40;;
20705;SDS011;10514;49.468;11.044;2023-03-14T01:36:29;0.55;;;0.50;;
20705;SDS011;10514;49.468;11.044;2023-03-14T01:38:55;0.82;;;0.40;;
20705;SDS011;10514;49.468;11.044;2023-03-14T01:41:22;0.35;;;0.25;;
20705;SDS011;10514;49.468;11.044;2023-03-14T01:43:50;0.95;;;0.52;;
20705;SDS011;10514;49.468;11.044;2023-03-14T01:46:20;0.38;;;0.38;;
20705;SDS011;10514;49.468;11.044;2023-03-14T01:51:13;0.30;;;0.30;;
20705;SDS011;10514;49.468;11.044;2023-03-14T01:53:40;0.20;;;0.20;;
20705;SDS011;10514;49.468;11.044;2023-03-14T01:56:08;0.47;;;0.38;;
20705;SDS011;10514;49.468;11.044;2023-03-14T01:58:36;0.40;;;0.30;;
20705;SDS011;10514;49.468;11.044;2023-03-14T02:01:02;0.30;;;0.30;;
20705;SDS011;10514;49.468;11.044;2023-03-14T02:03:29;1.97;;;0.40;;
20705;SDS011;10514;49.468;11.044;2023-03-14T02:05:56;0.65;;;0.40;;
20705;SDS011;10514;49.468;11.044;2023-03-14T02:08:25;0.30;;;0.30;;
20705;SDS011;10514;49.468;11.044;2023-03-14T02:10:53;0.43;;;0.40;;
20705;SDS011;10514;49.468;11.044;2023-03-14T02:13:19;0.30;;;0.30;;
20705;SDS011;10514;49.468;11.044;2023-03-14T02:15:46;0.35;;;0.35;;
20705;SDS011;10514;49.468;11.044;2023-03-14T02:18:12;0.40;;;0.30;;
20705;SDS011;10514;49.468;11.044;2023-03-14T02:23:10;0.65;;;0.50;;
20705;SDS011;10514;49.468;11.044;2023-03-14T02:25:48;0.85;;;0.40;;
20705;SDS011;10514;49.468;11.044;2023-03-14T02:28:16;0.63;;;0.40;;
20705;SDS011;10514;49.468;11.044;2023-03-14T02:30:43;1.27;;;0.40;;
20705;SDS011;10514;49.468;11.044;2023-03-14T02:33:10;0.75;;;0.45;;
20705;SDS011;10514;49.468;11.044;2023-03-14T02:35:43;0.40;;;0.40;;
20705;SDS011;10514;49.468;11.044;2023-03-14T02:38:13;0.57;;;0.38;;
20705;SDS011;10514;49.468;11.044;2023-03-14T02:40:40;0.73;;;0.35;;
20705;SDS011;10514;49.468;11.044;2023-03-14T02:43:06;0.43;;;0.40;;
20705;SDS011;10514;49.468;11.044;2023-03-14T02:45:33;0.30;;;0.30;;
20705;SDS011;10514;49.468;11.044;2023-03-14T02:48:01;1.45;;;0.47;;
20705;SDS011;10514;49.468;11.044;2023-03-14T02:50:29;0.32;;;0.30;;
20705;SDS011;10514;49.468;11.044;2023-03-14T02:52:58;0.30;;;0.30;;
20705;SDS011;10514;49.468;11.044;2023-03-14T02:55:24;2.58;;;0.40;;
20705;SDS011;10514;49.468;11.044;2023-03-14T02:57:51;0.75;;;0.40;;
20705;SDS011;10514;49.468;11.044;2023-03-14T03:00:17;1.50;;;0.60;;
20705;SDS011;10514;49.468;11.044;2023-03-14T03:02:44;0.40;;;0.30;;
20705;SDS011;10514;49.468;11.044;2023-03-14T03:05:10;0.77;;;0.37;;
20705;SDS011;10514;49.468;11.044;2023-03-14T03:07:36;0.47;;;0.38;;
20705;SDS011;10514;49.468;11.044;2023-03-14T03:10:02;0.30;;;0.30;;
20705;SDS011;10514;49.468;11.044;2023-03-14T03:12:28;0.30;;;0.30;;
20705;SDS011;10514;49.468;11.044;2023-03-14T03:14:54;0.40;;;0.30;;
20705;SDS011;10514;49.468;11.044;2023-03-14T03:17:20;2.05;;;0.40;;
20705;SDS011;10514;49.468;11.044;2023-03-14T03:19:46;0.40;;;0.40;;
20705;SDS011;10514;49.468;11.044;2023-03-14T03:22:12;0.43;;;0.30;;
20705;SDS011;10514;49.468;11.044;2023-03-14T03:24:37;0.30;;;0.30;;
20705;SDS011;10514;49.468;11.044;2023-03-14T03:27:03;0.40;;;0.40;;
20705;SDS011;10514;49.468;11.044;2023-03-14T03:29:29;0.30;;;0.30;;
20705;SDS011;10514;49.468;11.044;2023-03-14T03:31:55;0.55;;;0.43;;
20705;SDS011;10514;49.468;11.044;2023-03-14T03:34:21;0.83;;;0.30;;
20705;SDS011;10514;49.468;11.044;2023-03-14T03:36:47;1.02;;;0.50;;
20705;SDS011;10514;49.468;11.044;2023-03-14T03:39:13;0.30;;;0.30;;
20705;SDS011;10514;49.468;11.044;2023-03-14T03:41:39;1.43;;;0.40;;
20705;SDS011;10514;49.468;11.044;2023-03-14T03:44:05;1.10;;;0.40;;
20705;SDS011;10514;49.468;11.044;2023-03-14T03:46:31;0.30;;;0.30;;
20705;SDS011;10514;49.468;11.044;2023-03-14T03:48:58;0.53;;;0.30;;
20705;SDS011;10514;49.468;11.044;2023-03-14T03:51:25;0.97;;;0.40;;
20705;SDS011;10514;49.468;11.044;2023-03-14T03:53:51;1.57;;;0.40;;
20705;SDS011;10514;49.468;11.044;2023-03-14T03:56:17;0.40;;;0.40;;
20705;SDS011;10514;49.468;11.044;2023-03-14T03:58:43;0.63;;;0.40;;
20705;SDS011;10514;49.468;11.044;2023-03-14T04:01:09;0.60;;;0.40;;
20705;SDS011;10514;49.468;11.044;2023-03-14T04:03:35;1.55;;;0.38;;
20705;SDS011;10514;49.468;11.044;2023-03-14T04:06:04;0.60;;;0.32;;
20705;SDS011;10514;49.468;11.044;2023-03-14T04:08:31;0.40;;;0.40;;
20705;SDS011;10514;49.468;11.044;2023-03-14T04:10:57;0.30;;;0.30;;
20705;SDS011;10514;49.468;11.044;2023-03-14T04:13:24;0.82;;;0.40;;
20705;SDS011;10514;49.468;11.044;2023-03-14T04:15:50;0.68;;;0.40;;
20705;SDS011;10514;49.468;11.044;2023-03-14T04:18:16;0.35;;;0.30;;
20705;SDS011;10514;49.468;11.044;2023-03-14T04:20:42;0.80;;;0.40;;
20705;SDS011;10514;49.468;11.044;2023-03-14T04:23:08;1.45;;;0.50;;
20705;SDS011;10514;49.468;11.044;2023-03-14T04:25:34;0.75;;;0.60;;
20705;SDS011;10514;49.468;11.044;2023-03-14T04:28:00;0.75;;;0.50;;
20705;SDS011;10514;49.468;11.044;2023-03-14T04:30:26;1.17;;;0.50;;
20705;SDS011;10514;49.468;11.044;2023-03-14T04:32:52;1.30;;;0.40;;
20705;SDS011;10514;49.468;11.044;2023-03-14T04:35:18;0.90;;;0.40;;
20705;SDS011;10514;49.468;11.044;2023-03-14T04:37:44;1.77;;;0.47;;
20705;SDS011;10514;49.468;11.044;2023-03-14T04:40:13;0.70;;;0.50;;
20705;SDS011;10514;49.468;11.044;2023-03-14T04:42:39;1.35;;;0.40;;
20705;SDS011;10514;49.468;11.044;2023-03-14T04:45:05;0.80;;;0.50;;
20705;SDS011;10514;49.468;11.044;2023-03-14T04:47:32;2.35;;;0.40;;
20705;SDS011;10514;49.468;11.044;2023-03-14T04:49:58;0.57;;;0.57;;
20705;SDS011;10514;49.468;11.044;2023-03-14T04:52:23;3.50;;;0.50;;
20705;SDS011;10514;49.468;11.044;2023-03-14T04:54:49;0.50;;;0.40;;
20705;SDS011;10514;49.468;11.044;2023-03-14T04:57:15;0.60;;;0.40;;
20705;SDS011;10514;49.468;11.044;2023-03-14T04:59:41;1.77;;;0.50;;
20705;SDS011;10514;49.468;11.044;2023-03-14T05:02:07;0.50;;;0.47;;
20705;SDS011;10514;49.468;11.044;2023-03-14T05:04:33;1.23;;;0.50;;
20705;SDS011;10514;49.468;11.044;2023-03-14T05:06:59;2.77;;;0.57;;
20705;SDS011;10514;49.468;11.044;2023-03-14T05:09:25;0.47;;;0.40;;
20705;SDS011;10514;49.468;11.044;2023-03-14T05:11:52;0.47;;;0.47;;
20705;SDS011;10514;49.468;11.044;2023-03-14T05:14:18;1.03;;;0.50;;
20705;SDS011;10514;49.468;11.044;2023-03-14T05:16:44;0.77;;;0.40;;
20705;SDS011;10514;49.468;11.044;2023-03-14T05:19:10;0.47;;;0.43;;
20705;SDS011;10514;49.468;11.044;2023-03-14T05:21:36;2.23;;;0.40;;
20705;SDS011;10514;49.468;11.044;2023-03-14T05:24:02;0.80;;;0.57;;
20705;SDS011;10514;49.468;11.044;2023-03-14T05:26:28;0.53;;;0.50;;
20705;SDS011;10514;49.468;11.044;2023-03-14T05:28:54;2.03;;;0.50;;
20705;SDS011;10514;49.468;11.044;2023-03-14T05:31:20;0.50;;;0.40;;
20705;SDS011;10514;49.468;11.044;2023-03-14T05:33:46;1.83;;;0.60;;
20705;SDS011;10514;49.468;11.044;2023-03-14T05:36:12;1.37;;;0.60;;
20705;SDS011;10514;49.468;11.044;2023-03-14T05:38:37;0.70;;;0.50;;
20705;SDS011;10514;49.468;11.044;2023-03-14T05:41:03;0.70;;;0.47;;
20705;SDS011;10514;49.468;11.044;2023-03-14T05:43:30;0.70;;;0.60;;
20705;SDS011;10514;49.468;11.044;2023-03-14T05:45:56;0.70;;;0.50;;
20705;SDS011;10514;49.468;11.044;2023-03-14T05:48:21;0.73;;;0.60;;
20705;SDS011;10514;49.468;11.044;2023-03-14T05:50:47;0.40;;;0.40;;
20705;SDS011;10514;49.468;11.044;2023-03-14T05:53:19;0.60;;;0.60;;
20705;SDS011;10514;49.468;11.044;2023-03-14T05:55:44;0.50;;;0.50;;
20705;SDS011;10514;49.468;11.044;2023-03-14T05:58:10;1.57;;;0.93;;
20705;SDS011;10514;49.468;11.044;2023-03-14T06:00:36;1.90;;;0.60;;
20705;SDS011;10514;49.468;11.044;2023-03-14T06:03:02;1.60;;;0.70;;
20705;SDS011;10514;49.468;11.044;2023-03-14T06:05:28;0.83;;;0.50;;
20705;SDS011;10514;49.468;11.044;2023-03-14T06:07:54;1.97;;;0.90;;
20705;SDS011;10514;49.468;11.044;2023-03-14T06:10:20;0.60;;;0.60;;
20705;SDS011;10514;49.468;11.044;2023-03-14T06:12:46;3.27;;;0.87;;
20705;SDS011;10514;49.468;11.044;2023-03-14T06:15:11;0.60;;;0.60;;
20705;SDS011;10514;49.468;11.044;2023-03-14T06:17:37;0.77;;;0.60;;
20705;SDS011;10514;49.468;11.044;2023-03-14T06:20:03;1.90;;;0.60;;
20705;SDS011;10514;49.468;11.044;2023-03-14T06:22:29;1.80;;;0.60;;
20705;SDS011;10514;49.468;11.044;2023-03-14T06:24:55;1.10;;;0.60;;
20705;SDS011;10514;49.468;11.044;2023-03-14T06:27:21;0.63;;;0.60;;
20705;SDS011;10514;49.468;11.044;2023-03-14T06:29:47;5.87;;;0.70;;
20705;SDS011;10514;49.468;11.044;2023-03-14T06:32:13;1.33;;;0.70;;
20705;SDS011;10514;49.468;11.044;2023-03-14T06:34:39;1.23;;;0.60;;
20705;SDS011;10514;49.468;11.044;2023-03-14T06:37:05;2.87;;;0.60;;
20705;SDS011;10514;49.468;11.044;2023-03-14T06:39:31;0.83;;;0.60;;
20705;SDS011;10514;49.468;11.044;2023-03-14T06:41:57;0.93;;;0.60;;
20705;SDS011;10514;49.468;11.044;2023-03-14T06:44:23;0.90;;;0.60;;
20705;SDS011;10514;49.468;11.044;2023-03-14T06:46:49;1.33;;;0.70;;
20705;SDS011;10514;49.468;11.044;2023-03-14T06:49:15;1.17;;;0.70;;
20705;SDS011;10514;49.468;11.044;2023-03-14T06:51:41;2.00;;;0.77;;
20705;SDS011;10514;49.468;11.044;2023-03-14T06:54:07;1.13;;;0.70;;
20705;SDS011;10514;49.468;11.044;2023-03-14T06:56:33;2.10;;;0.83;;
20705;SDS011;10514;49.468;11.044;2023-03-14T06:58:59;2.38;;;0.70;;
20705;SDS011;10514;49.468;11.044;2023-03-14T07:01:26;1.07;;;0.70;;
20705;SDS011;10514;49.468;11.044;2023-03-14T07:03:52;1.07;;;0.60;;
20705;SDS011;10514;49.468;11.044;2023-03-14T07:06:18;2.67;;;1.20;;
20705;SDS011;10514;49.468;11.044;2023-03-14T07:08:44;1.60;;;0.68;;
20705;SDS011;10514;49.468;11.044;2023-03-14T07:11:10;1.45;;;0.75;;
20705;SDS011;10514;49.468;11.044;2023-03-14T07:13:36;1.80;;;0.70;;
20705;SDS011;10514;49.468;11.044;2023-03-14T07:16:03;1.80;;;0.80;;
20705;SDS011;10514;49.468;11.044;2023-03-14T07:18:29;1.17;;;0.60;;
20705;SDS011;10514;49.468;11.044;2023-03-14T07:20:55;1.40;;;0.77;;
20705;SDS011;10514;49.468;11.044;2023-03-14T07:23:21;2.90;;;1.02;;
20705;SDS011;10514;49.468;11.044;2023-03-14T07:25:46;5.57;;;1.03;;
20705;SDS011;10514;49.468;11.044;2023-03-14T07:28:12;1.23;;;0.60;;
20705;SDS011;10514;49.468;11.044;2023-03-14T07:30:38;2.95;;;1.05;;
20705;SDS011;10514;49.468;11.044;2023-03-14T07:33:04;2.42;;;0.80;;
20705;SDS011;10514;49.468;11.044;2023-03-14T07:35:30;4.70;;;0.98;;
20705;SDS011;10514;49.468;11.044;2023-03-14T07:37:56;1.95;;;1.00;;
20705;SDS011;10514;49.468;11.044;2023-03-14T07:40:22;2.60;;;0.98;;
20705;SDS011;10514;49.468;11.044;2023-03-14T07:42:48;2.23;;;1.30;;
20705;SDS011;10514;49.468;11.044;2023-03-14T07:45:14;2.28;;;1.05;;
20705;SDS011;10514;49.468;11.044;2023-03-14T07:47:40;2.40;;;1.15;;
20705;SDS011;10514;49.468;11.044;2023-03-14T07:50:06;1.05;;;0.85;;
20705;SDS011;10514;49.468;11.044;2023-03-14T07:52:33;1.73;;;0.80;;
20705;SDS011;10514;49.468;11.044;2023-03-14T07:54:59;1.98;;;0.98;;
20705;SDS011;10514;49.468;11.044;2023-03-14T07:57:24;3.72;;;1.15;;
20705;SDS011;10514;49.468;11.044;2023-03-14T07:59:50;2.95;;;0.90;;
20705;SDS011;10514;49.468;11.044;2023-03-14T08:02:16;3.88;;;1.05;;
20705;SDS011;10514;49.468;11.044;2023-03-14T08:04:45;1.40;;;0.88;;
20705;SDS011;10514;49.468;11.044;2023-03-14T08:07:11;1.83;;;0.80;;
20705;SDS011;10514;49.468;11.044;2023-03-14T08:09:37;1.38;;;0.90;;
20705;SDS011;10514;49.468;11.044;2023-03-14T08:12:03;2.30;;;1.00;;
20705;SDS011;10514;49.468;11.044;2023-03-14T08:14:29;1.55;;;0.80;;
20705;SDS011;10514;49.468;11.044;2023-03-14T08:16:55;1.50;;;0.80;;
20705;SDS011;10514;49.468;11.044;2023-03-14T08:19:21;2.58;;;0.80;;
20705;SDS011;10514;49.468;11.044;2023-03-14T08:21:47;2.58;;;0.90;;
20705;SDS011;10514;49.468;11.044;2023-03-14T08:24:13;2.80;;;1.00;;
20705;SDS011;10514;49.468;11.044;2023-03-14T08:26:39;1.70;;;0.70;;
20705;SDS011;10514;49.468;11.044;2023-03-14T08:29:05;2.28;;;0.70;;
20705;SDS011;10514;49.468;11.044;2023-03-14T08:31:33;0.98;;;0.70;;
20705;SDS011;10514;49.468;11.044;2023-03-14T08:34:00;1.52;;;0.80;;
20705;SDS011;10514;49.468;11.044;2023-03-14T08:36:26;3.05;;;0.80;;
20705;SDS011;10514;49.468;11.044;2023-03-14T08:38:53;3.47;;;0.63;;
20705;SDS011;10514;49.468;11.044;2023-03-14T08:41:19;2.03;;;0.77;;
20705;SDS011;10514;49.468;11.044;2023-03-14T08:43:45;0.90;;;0.40;;
20705;SDS011;10514;49.468;11.044;2023-03-14T08:46:10;0.82;;;0.68;;
20705;SDS011;10514;49.468;11.044;2023-03-14T08:48:36;1.75;;;0.68;;
20705;SDS011;10514;49.468;11.044;2023-03-14T08:53:31;1.63;;;0.50;;
20705;SDS011;10514;49.468;11.044;2023-03-14T08:55:57;1.48;;;0.68;;
20705;SDS011;10514;49.468;11.044;2023-03-14T08:58:23;1.83;;;0.65;;
20705;SDS011;10514;49.468;11.044;2023-03-14T09:00:49;3.95;;;0.70;;
20705;SDS011;10514;49.468;11.044;2023-03-14T09:03:15;2.55;;;0.60;;
20705;SDS011;10514;49.468;11.044;2023-03-14T09:05:41;2.35;;;0.70;;
20705;SDS011;10514;49.468;11.044;2023-03-14T09:08:07;1.65;;;0.70;;
20705;SDS011;10514;49.468;11.044;2023-03-14T09:10:33;0.65;;;0.50;;
20705;SDS011;10514;49.468;11.044;2023-03-14T09:12:59;1.38;;;0.43;;
20705;SDS011;10514;49.468;11.044;2023-03-14T09:15:25;1.75;;;0.50;;
20705;SDS011;10514;49.468;11.044;2023-03-14T09:17:51;2.55;;;0.80;;
20705;SDS011;10514;49.468;11.044;2023-03-14T09:20:17;2.67;;;0.60;;
20705;SDS011;10514;49.468;11.044;2023-03-14T09:22:43;3.40;;;0.70;;
20705;SDS011;10514;49.468;11.044;2023-03-14T09:25:09;2.30;;;0.68;;
20705;SDS011;10514;49.468;11.044;2023-03-14T09:27:35;1.92;;;0.60;;
20705;SDS011;10514;49.468;11.044;2023-03-14T09:30:02;2.72;;;0.65;;
20705;SDS011;10514;49.468;11.044;2023-03-14T09:32:28;1.48;;;0.50;;
20705;SDS011;10514;49.468;11.044;2023-03-14T09:34:54;2.25;;;0.70;;
20705;SDS011;10514;49.468;11.044;2023-03-14T09:37:19;1.23;;;0.50;;
20705;SDS011;10514;49.468;11.044;2023-03-14T09:39:46;3.28;;;0.60;;
20705;SDS011;10514;49.468;11.044;2023-03-14T09:42:13;0.88;;;0.60;;
20705;SDS011;10514;49.468;11.044;2023-03-14T09:45:14;2.10;;;0.60;;
20705;SDS011;10514;49.468;11.044;2023-03-14T09:47:33;1.00;;;0.50;;
20705;SDS011;10514;49.468;11.044;2023-03-14T09:50:00;3.78;;;0.57;;
20705;SDS011;10514;49.468;11.044;2023-03-14T09:52:33;4.90;;;0.65;;
20705;SDS011;10514;49.468;11.044;2023-03-14T09:55:10;1.35;;;0.52;;
20705;SDS011;10514;49.468;11.044;2023-03-14T09:57:37;0.95;;;0.52;;
20705;SDS011;10514;49.468;11.044;2023-03-14T10:00:06;3.47;;;0.57;;
20705;SDS011;10514;49.468;11.044;2023-03-14T10:02:39;3.30;;;0.50;;
20705;SDS011;10514;49.468;11.044;2023-03-14T10:05:13;2.08;;;0.40;;
20705;SDS011;10514;49.468;11.044;2023-03-14T10:07:39;1.73;;;0.52;;
20705;SDS011;10514;49.468;11.044;2023-03-14T10:10:09;3.63;;;0.80;;
20705;SDS011;10514;49.468;11.044;2023-03-14T10:12:38;2.03;;;0.60;;
20705;SDS011;10514;49.468;11.044;2023-03-14T10:15:06;1.10;;;0.60;;
20705;SDS011;10514;49.468;11.044;2023-03-14T10:17:40;1.73;;;0.57;;
20705;SDS011;10514;49.468;11.044;2023-03-14T10:20:14;1.55;;;0.60;;
20705;SDS011;10514;49.468;11.044;2023-03-14T10:25:44;1.33;;;0.60;;
20705;SDS011;10514;49.468;11.044;2023-03-14T10:28:27;0.60;;;0.50;;
20705;SDS011;10514;49.468;11.044;2023-03-14T10:30:54;1.52;;;0.55;;
20705;SDS011;10514;49.468;11.044;2023-03-14T10:33:24;2.00;;;0.60;;
20705;SDS011;10514;49.468;11.044;2023-03-14T10:35:54;1.45;;;0.60;;
20705;SDS011;10514;49.468;11.044;2023-03-14T10:38:22;1.23;;;0.60;;
20705;SDS011;10514;49.468;11.044;2023-03-14T10:40:50;0.65;;;0.50;;
20705;SDS011;10514;49.468;11.044;2023-03-14T10:43:19;0.75;;;0.30;;
20705;SDS011;10514;49.468;11.044;2023-03-14T10:45:52;4.70;;;0.57;;
20705;SDS011;10514;49.468;11.044;2023-03-14T10:50:50;1.05;;;0.50;;
20705;SDS011;10514;49.468;11.044;2023-03-14T10:53:18;0.57;;;0.40;;
20705;SDS011;10514;49.468;11.044;2023-03-14T10:55:45;1.05;;;0.60;;
20705;SDS011;10514;49.468;11.044;2023-03-14T10:58:24;2.10;;;0.50;;
20705;SDS011;10514;49.468;11.044;2023-03-14T11:00:52;1.30;;;0.30;;
20705;SDS011;10514;49.468;11.044;2023-03-14T11:03:22;1.30;;;0.45;;
20705;SDS011;10514;49.468;11.044;2023-03-14T11:08:18;3.63;;;0.50;;
20705;SDS011;10514;49.468;11.044;2023-03-14T11:10:48;0.85;;;0.50;;
20705;SDS011;10514;49.468;11.044;2023-03-14T11:13:22;0.52;;;0.40;;
20705;SDS011;10514;49.468;11.044;2023-03-14T11:16:02;1.50;;;0.60;;
20705;SDS011;10514;49.468;11.044;2023-03-14T11:23:46;0.68;;;0.45;;
20705;SDS011;10514;49.468;11.044;2023-03-14T11:26:19;3.40;;;0.70;;
20705;SDS011;10514;49.468;11.044;2023-03-14T11:28:49;1.92;;;0.43;;
20705;SDS011;10514;49.468;11.044;2023-03-14T11:31:16;1.77;;;0.50;;
20705;SDS011;10514;49.468;11.044;2023-03-14T11:36:48;0.73;;;0.40;;
20705;SDS011;10514;49.468;11.044;2023-03-14T11:39:18;4.53;;;1.40;;
20705;SDS011;10514;49.468;11.044;2023-03-14T11:41:53;1.52;;;0.50;;
20705;SDS011;10514;49.468;11.044;2023-03-14T11:44:25;0.30;;;0.30;;
20705;SDS011;10514;49.468;11.044;2023-03-14T11:47:10;1.05;;;0.50;;
20705;SDS011;10514;49.468;11.044;2023-03-14T11:49:45;0.60;;;0.40;;
20705;SDS011;10514;49.468;11.044;2023-03-14T11:55:09;2.10;;;0.30;;
20705;SDS011;10514;49.468;11.044;2023-03-14T11:57:36;0.40;;;0.40;;
20705;SDS011;10514;49.468;11.044;2023-03-14T12:10:38;2.15;;;0.45;;
20705;SDS011;10514;49.468;11.044;2023-03-14T12:13:16;2.15;;;0.47;;
20705;SDS011;10514;49.468;11.044;2023-03-14T12:15:56;3.00;;;1.05;;
20705;SDS011;10514;49.468;11.044;2023-03-14T12:18:34;0.60;;;0.40;;
20705;SDS011;10514;49.468;11.044;2023-03-14T12:21:04;0.40;;;0.30;;
20705;SDS011;10514;49.468;11.044;2023-03-14T12:23:36;0.25;;;0.25;;
20705;SDS011;10514;49.468;11.044;2023-03-14T12:26:07;0.52;;;0.22;;
20705;SDS011;10514;49.468;11.044;2023-03-14T12:28:39;0.63;;;0.38;;
20705;SDS011;10514;49.468;11.044;2023-03-14T12:34:04;1.85;;;0.30;;
20705;SDS011;10514;49.468;11.044;2023-03-14T12:39:29;0.85;;;0.35;;
20705;SDS011;10514;49.468;11.044;2023-03-14T12:42:11;1.95;;;0.30;;
20705;SDS011;10514;49.468;11.044;2023-03-14T12:44:41;2.35;;;0.35;;
20705;SDS011;10514;49.468;11.044;2023-03-14T12:49:46;0.47;;;0.40;;
20705;SDS011;10514;49.468;11.044;2023-03-14T12:52:16;0.50;;;0.40;;
20705;SDS011;10514;49.468;11.044;2023-03-14T13:00:21;0.77;;;0.30;;
20705;SDS011;10514;49.468;11.044;2023-03-14T13:02:49;1.42;;;0.30;;
20705;SDS011;10514;49.468;11.044;2023-03-14T13:05:19;0.57;;;0.30;;
20705;SDS011;10514;49.468;11.044;2023-03-14T13:13:03;0.40;;;0.30;;
20705;SDS011;10514;49.468;11.044;2023-03-14T13:15:38;0.30;;;0.30;;
20705;SDS011;10514;49.468;11.044;2023-03-14T13:18:17;0.25;;;0.25;;
20705;SDS011;10514;49.468;11.044;2023-03-14T13:20:45;0.80;;;0.38;;
20705;SDS011;10514;49.468;11.044;2023-03-14T13:23:28;0.32;;;0.30;;
20705;SDS011;10514;49.468;11.044;2023-03-14T13:25:54;0.40;;;0.30;;
20705;SDS011;10514;49.468;11.044;2023-03-14T13:28:20;0.30;;;0.30;;
20705;SDS011;10514;49.468;11.044;2023-03-14T13:30:48;1.77;;;0.40;;
20705;SDS011;10514;49.468;11.044;2023-03-14T13:33:16;1.20;;;0.30;;
20705;SDS011;10514;49.468;11.044;2023-03-14T13:35:46;0.55;;;0.30;;
20705;SDS011;10514;49.468;11.044;2023-03-14T13:38:15;0.30;;;0.30;;
20705;SDS011;10514;49.468;11.044;2023-03-14T13:40:42;2.47;;;0.30;;
20705;SDS011;10514;49.468;11.044;2023-03-14T13:45:50;0.30;;;0.30;;
20705;SDS011;10514;49.468;11.044;2023-03-14T13:48:17;0.40;;;0.30;;
20705;SDS011;10514;49.468;11.044;2023-03-14T13:50:50;0.45;;;0.40;;
20705;SDS011;10514;49.468;11.044;2023-03-14T13:53:17;1.20;;;0.40;;
20705;SDS011;10514;49.468;11.044;2023-03-14T13:55:43;0.43;;;0.40;;
20705;SDS011;10514;49.468;11.044;2023-03-14T13:58:23;0.40;;;0.40;;
20705;SDS011;10514;49.468;11.044;2023-03-14T14:00:59;0.30;;;0.30;;
20705;SDS011;10514;49.468;11.044;2023-03-14T14:03:26;2.30;;;0.60;;
20705;SDS011;10514;49.468;11.044;2023-03-14T14:05:53;5.22;;;0.60;;
20705;SDS011;10514;49.468;11.044;2023-03-14T14:08:19;0.73;;;0.43;;
20705;SDS011;10514;49.468;11.044;2023-03-14T14:10:46;0.47;;;0.40;;
20705;SDS011;10514;49.468;11.044;2023-03-14T14:13:14;0.80;;;0.50;;
20705;SDS011;10514;49.468;11.044;2023-03-14T14:15:44;1.13;;;0.50;;
20705;SDS011;10514;49.468;11.044;2023-03-14T14:18:11;3.15;;;0.50;;
20705;SDS011;10514;49.468;11.044;2023-03-14T14:20:41;1.55;;;0.60;;
20705;SDS011;10514;49.468;11.044;2023-03-14T14:23:12;0.50;;;0.43;;
20705;SDS011;10514;49.468;11.044;2023-03-14T14:25:38;1.30;;;0.50;;
20705;SDS011;10514;49.468;11.044;2023-03-14T14:31:02;1.75;;;0.52;;
20705;SDS011;10514;49.468;11.044;2023-03-14T14:33:28;0.95;;;0.60;;
20705;SDS011;10514;49.468;11.044;2023-03-14T14:35:56;2.10;;;0.55;;
20705;SDS011;10514;49.468;11.044;2023-03-14T14:38:22;0.40;;;0.40;;
20705;SDS011;10514;49.468;11.044;2023-03-14T14:40:49;0.40;;;0.40;;
20705;SDS011;10514;49.468;11.044;2023-03-14T14:43:17;1.45;;;0.52;;
20705;SDS011;10514;49.468;11.044;2023-03-14T14:45:49;2.47;;;0.40;;
20705;SDS011;10514;49.468;11.044;2023-03-14T14:48:18;0.30;;;0.30;;
20705;SDS011;10514;49.468;11.044;2023-03-14T14:53:27;0.47;;;0.37;;
20705;SDS011;10514;49.468;11.044;2023-03-14T14:55:54;0.50;;;0.50;;
20705;SDS011;10514;49.468;11.044;2023-03-14T14:58:25;0.85;;;0.50;;
20705;SDS011;10514;49.468;11.044;2023-03-14T15:00:53;0.30;;;0.30;;
20705;SDS011;10514;49.468;11.044;2023-03-14T15:03:21;0.43;;;0.43;;
20705;SDS011;10514;49.468;11.044;2023-03-14T15:05:47;0.97;;;0.40;;
20705;SDS011;10514;49.468;11.044;2023-03-14T15:08:13;0.40;;;0.40;;
20705;SDS011;10514;49.468;11.044;2023-03-14T15:10:39;0.40;;;0.40;;
20705;SDS011;10514;49.468;11.044;2023-03-14T15:13:05;0.60;;;0.60;;
20705;SDS011;10514;49.468;11.044;2023-03-14T15:15:31;1.17;;;0.90;;
20705;SDS011;10514;49.468;11.044;2023-03-14T15:17:57;0.60;;;0.60;;
20705;SDS011;10514;49.468;11.044;2023-03-14T15:20:23;1.00;;;0.60;;
20705;SDS011;10514;49.468;11.044;2023-03-14T15:22:49;0.70;;;0.67;;
20705;SDS011;10514;49.468;11.044;2023-03-14T15:25:16;2.27;;;0.80;;
20705;SDS011;10514;49.468;11.044;2023-03-14T15:27:42;1.10;;;0.93;;
20705;SDS011;10514;49.468;11.044;2023-03-14T15:30:17;2.00;;;0.80;;
20705;SDS011;10514;49.468;11.044;2023-03-14T15:32:43;2.13;;;0.90;;
20705;SDS011;10514;49.468;11.044;2023-03-14T15:35:09;2.10;;;1.13;;
20705;SDS011;10514;49.468;11.044;2023-03-14T15:37:35;1.70;;;1.10;;
20705;SDS011;10514;49.468;11.044;2023-03-14T15:40:03;2.40;;;1.13;;